Aérodrome :
LOGIN :

S'inscrire | Disclaimer

   EN    FR    IT 

 










Légende :    VFR   VFR Marginal   IFR   IFR Intensif   IFR Très Intensif
Visi : 
Plafond : 
>= 8 km
>= 3000ft
5 à 8 km
1000 à 3000 ft
1500m à 5 km
500 à 1000 ft
800 à 1500m
200 à 500 ft
< 800m
< 200 ft
Symboles :   Orages  Brouillard  Fortes neiges  Fortes précipitations  Vent > 20 kt
SIGMETs :   Divers  Orages  Givrage  Turbulence  Onde Orograph.  Cendres Volcan.






- Altitude de l'aérodrome : 144 ft
- Code IATA : PGF


LFMP - Perpignan

DERNIER METAR :
  • 041100Z AUTO 31019KT 9999 FEW064 26/09 Q1015 TEMPO 32020G30KT

METARs EXPIRÉS :
  • 041030Z AUTO 31017G27KT 270V340 9999 FEW060 26/10 Q1015 NOSIG
  • 041000Z AUTO 32018KT 9999 FEW054 25/10 Q1015 TEMPO 32020G30KT
  • 040930Z AUTO 32018G31KT 290V350 9999 FEW052 24/11 Q1016 NOSIG
  • 040900Z AUTO 32013G24KT 290V350 9999 FEW049 24/11 Q1016 NOSIG
  • 040830Z AUTO 33016KT 9999 FEW048 23/12 Q1016 BECMG 32015G30KT

TAF TAF LFMP
Valide du 04 à 09h jusqu'au 05 à 09h UTC


040800Z 0409/0509 31016KT CAVOK
TEMPO 0409/0419 32020G30KT
BECMG 0421/0423 30005KT
ATIS : +33 4 68 63 75 12



MET'MAP, la Météo Aéronautique d'un coup d'oeil ! - Copyright ORBIFLY Décembre 2007 - Disclaimer

ORBIFLY MET'MAP TEAM :

Programmation & Développement : Alexandra Zaïnal
Sur une idée originale de : Baudouin d'Aumeries
Assistance à la programmation : Marc-Olivier Méhu
Soutien technique & logistique : Manuel Goepfert

Contact : metmap@orbifly.com




SOURCES & CREDITS :

   NOAA